sensor_id;sensor_type;location;lat;lon;timestamp;temperature;humidity
12847;DHT22;6492;48.128;8.320;2023-12-20T00:00:23;3.10;46.80
12847;DHT22;6492;48.128;8.320;2023-12-20T00:04:25;3.10;47.00
12847;DHT22;6492;48.128;8.320;2023-12-20T00:08:26;3.10;47.70
12847;DHT22;6492;48.128;8.320;2023-12-20T00:12:28;3.20;47.00
12847;DHT22;6492;48.128;8.320;2023-12-20T00:16:31;3.20;47.40
12847;DHT22;6492;48.128;8.320;2023-12-20T00:20:33;3.20;47.20
12847;DHT22;6492;48.128;8.320;2023-12-20T00:24:35;3.30;47.40
12847;DHT22;6492;48.128;8.320;2023-12-20T00:28:37;3.30;47.60
12847;DHT22;6492;48.128;8.320;2023-12-20T00:32:40;3.30;48.40
12847;DHT22;6492;48.128;8.320;2023-12-20T00:36:46;3.30;48.60
12847;DHT22;6492;48.128;8.320;2023-12-20T00:40:48;3.30;49.50
12847;DHT22;6492;48.128;8.320;2023-12-20T00:44:51;3.40;50.80
12847;DHT22;6492;48.128;8.320;2023-12-20T00:48:54;3.40;52.30
12847;DHT22;6492;48.128;8.320;2023-12-20T00:52:55;3.40;53.50
12847;DHT22;6492;48.128;8.320;2023-12-20T00:56:57;3.30;54.30
12847;DHT22;6492;48.128;8.320;2023-12-20T01:01:00;3.30;55.80
12847;DHT22;6492;48.128;8.320;2023-12-20T01:05:03;3.30;57.30
12847;DHT22;6492;48.128;8.320;2023-12-20T01:09:05;3.30;58.20
12847;DHT22;6492;48.128;8.320;2023-12-20T01:13:07;3.20;58.90
12847;DHT22;6492;48.128;8.320;2023-12-20T01:17:09;3.20;59.60
12847;DHT22;6492;48.128;8.320;2023-12-20T01:21:12;3.20;60.10
12847;DHT22;6492;48.128;8.320;2023-12-20T01:25:14;3.10;60.20
12847;DHT22;6492;48.128;8.320;2023-12-20T01:29:16;3.10;60.50
12847;DHT22;6492;48.128;8.320;2023-12-20T01:33:18;3.10;60.50
12847;DHT22;6492;48.128;8.320;2023-12-20T01:37:23;3.00;60.50
12847;DHT22;6492;48.128;8.320;2023-12-20T01:41:25;3.00;60.60
12847;DHT22;6492;48.128;8.320;2023-12-20T01:45:27;3.00;60.80
12847;DHT22;6492;48.128;8.320;2023-12-20T01:49:29;3.00;61.30
12847;DHT22;6492;48.128;8.320;2023-12-20T01:53:33;2.90;61.70
12847;DHT22;6492;48.128;8.320;2023-12-20T01:57:34;3.00;61.60
12847;DHT22;6492;48.128;8.320;2023-12-20T02:01:36;2.90;61.80
12847;DHT22;6492;48.128;8.320;2023-12-20T02:05:39;2.90;62.50
12847;DHT22;6492;48.128;8.320;2023-12-20T02:09:43;2.80;62.90
12847;DHT22;6492;48.128;8.320;2023-12-20T02:13:44;2.80;63.60
12847;DHT22;6492;48.128;8.320;2023-12-20T02:17:47;2.80;63.70
12847;DHT22;6492;48.128;8.320;2023-12-20T02:22:05;2.80;64.00
12847;DHT22;6492;48.128;8.320;2023-12-20T02:26:07;2.70;64.60
12847;DHT22;6492;48.128;8.320;2023-12-20T02:30:10;2.70;64.70
12847;DHT22;6492;48.128;8.320;2023-12-20T02:34:11;2.70;64.90
12847;DHT22;6492;48.128;8.320;2023-12-20T02:38:15;2.60;64.90
12847;DHT22;6492;48.128;8.320;2023-12-20T02:42:16;2.60;64.80
12847;DHT22;6492;48.128;8.320;2023-12-20T02:46:18;2.60;64.80
12847;DHT22;6492;48.128;8.320;2023-12-20T02:50:20;2.60;64.80
12847;DHT22;6492;48.128;8.320;2023-12-20T02:54:23;2.60;64.60
12847;DHT22;6492;48.128;8.320;2023-12-20T02:58:25;2.50;64.60
12847;DHT22;6492;48.128;8.320;2023-12-20T03:02:26;2.40;64.40
12847;DHT22;6492;48.128;8.320;2023-12-20T03:06:28;2.40;64.50
12847;DHT22;6492;48.128;8.320;2023-12-20T03:10:31;2.40;64.50
12847;DHT22;6492;48.128;8.320;2023-12-20T03:14:33;2.30;64.10
12847;DHT22;6492;48.128;8.320;2023-12-20T03:18:35;2.20;63.70
12847;DHT22;6492;48.128;8.320;2023-12-20T03:22:37;2.20;63.80
12847;DHT22;6492;48.128;8.320;2023-12-20T03:26:40;2.20;64.00
12847;DHT22;6492;48.128;8.320;2023-12-20T03:30:41;2.10;64.00
12847;DHT22;6492;48.128;8.320;2023-12-20T03:34:43;2.00;63.90
12847;DHT22;6492;48.128;8.320;2023-12-20T03:38:45;2.00;63.80
12847;DHT22;6492;48.128;8.320;2023-12-20T03:42:48;1.90;64.00
12847;DHT22;6492;48.128;8.320;2023-12-20T03:46:49;1.90;64.30
12847;DHT22;6492;48.128;8.320;2023-12-20T03:50:52;1.80;64.30
12847;DHT22;6492;48.128;8.320;2023-12-20T03:54:53;1.80;64.30
12847;DHT22;6492;48.128;8.320;2023-12-20T03:58:57;1.70;64.40
12847;DHT22;6492;48.128;8.320;2023-12-20T04:02:58;1.70;64.70
12847;DHT22;6492;48.128;8.320;2023-12-20T04:07:00;1.60;64.80
12847;DHT22;6492;48.128;8.320;2023-12-20T04:11:02;1.60;64.80
12847;DHT22;6492;48.128;8.320;2023-12-20T04:15:05;1.50;65.00
12847;DHT22;6492;48.128;8.320;2023-12-20T04:19:09;1.40;65.00
12847;DHT22;6492;48.128;8.320;2023-12-20T04:23:11;1.40;65.50
12847;DHT22;6492;48.128;8.320;2023-12-20T04:27:13;1.40;65.70
12847;DHT22;6492;48.128;8.320;2023-12-20T04:31:16;1.40;66.00
12847;DHT22;6492;48.128;8.320;2023-12-20T04:35:17;1.30;66.20
12847;DHT22;6492;48.128;8.320;2023-12-20T04:39:19;1.30;66.60
12847;DHT22;6492;48.128;8.320;2023-12-20T04:43:22;1.30;66.80
12847;DHT22;6492;48.128;8.320;2023-12-20T04:47:25;1.40;67.10
12847;DHT22;6492;48.128;8.320;2023-12-20T04:51:27;1.30;67.40
12847;DHT22;6492;48.128;8.320;2023-12-20T04:55:29;1.40;67.60
12847;DHT22;6492;48.128;8.320;2023-12-20T04:59:31;1.40;67.90
12847;DHT22;6492;48.128;8.320;2023-12-20T05:03:34;1.50;68.20
12847;DHT22;6492;48.128;8.320;2023-12-20T05:07:35;1.50;68.30
12847;DHT22;6492;48.128;8.320;2023-12-20T05:11:37;1.50;68.60
12847;DHT22;6492;48.128;8.320;2023-12-20T05:15:39;1.50;68.80
12847;DHT22;6492;48.128;8.320;2023-12-20T05:19:42;1.50;69.00
12847;DHT22;6492;48.128;8.320;2023-12-20T05:23:44;1.50;69.10
12847;DHT22;6492;48.128;8.320;2023-12-20T05:27:46;1.50;69.40
12847;DHT22;6492;48.128;8.320;2023-12-20T05:31:58;1.60;69.70
12847;DHT22;6492;48.128;8.320;2023-12-20T05:36:01;1.60;69.80
12847;DHT22;6492;48.128;8.320;2023-12-20T05:40:04;1.60;70.00
12847;DHT22;6492;48.128;8.320;2023-12-20T05:44:05;1.70;70.30
12847;DHT22;6492;48.128;8.320;2023-12-20T05:48:07;1.70;70.60
12847;DHT22;6492;48.128;8.320;2023-12-20T05:52:10;1.70;70.60
12847;DHT22;6492;48.128;8.320;2023-12-20T05:56:12;1.80;70.70
12847;DHT22;6492;48.128;8.320;2023-12-20T06:00:14;1.80;70.90
12847;DHT22;6492;48.128;8.320;2023-12-20T06:04:17;1.80;70.90
12847;DHT22;6492;48.128;8.320;2023-12-20T06:08:20;1.80;71.00
12847;DHT22;6492;48.128;8.320;2023-12-20T06:12:21;1.90;71.30
12847;DHT22;6492;48.128;8.320;2023-12-20T06:16:23;1.90;71.30
12847;DHT22;6492;48.128;8.320;2023-12-20T06:20:25;1.90;71.40
12847;DHT22;6492;48.128;8.320;2023-12-20T06:24:28;1.90;71.30
12847;DHT22;6492;48.128;8.320;2023-12-20T06:28:30;1.90;71.40
12847;DHT22;6492;48.128;8.320;2023-12-20T06:32:32;1.90;71.40
12847;DHT22;6492;48.128;8.320;2023-12-20T06:36:34;2.00;71.60
12847;DHT22;6492;48.128;8.320;2023-12-20T06:40:38;2.00;71.60
12847;DHT22;6492;48.128;8.320;2023-12-20T06:44:39;2.00;71.60
12847;DHT22;6492;48.128;8.320;2023-12-20T06:48:41;2.00;71.70
12847;DHT22;6492;48.128;8.320;2023-12-20T06:52:43;2.00;71.70
12847;DHT22;6492;48.128;8.320;2023-12-20T06:56:46;2.00;71.80
12847;DHT22;6492;48.128;8.320;2023-12-20T07:00:48;2.00;71.80
12847;DHT22;6492;48.128;8.320;2023-12-20T07:04:50;2.00;71.80
12847;DHT22;6492;48.128;8.320;2023-12-20T07:08:52;2.00;71.90
12847;DHT22;6492;48.128;8.320;2023-12-20T07:12:55;1.90;71.90
12847;DHT22;6492;48.128;8.320;2023-12-20T07:17:11;1.90;71.90
12847;DHT22;6492;48.128;8.320;2023-12-20T07:21:14;1.90;71.90
12847;DHT22;6492;48.128;8.320;2023-12-20T07:25:16;1.90;71.90
12847;DHT22;6492;48.128;8.320;2023-12-20T07:29:19;1.90;71.90
12847;DHT22;6492;48.128;8.320;2023-12-20T07:33:21;1.90;72.00
12847;DHT22;6492;48.128;8.320;2023-12-20T07:37:32;1.90;72.00
12847;DHT22;6492;48.128;8.320;2023-12-20T07:41:34;1.90;72.00
12847;DHT22;6492;48.128;8.320;2023-12-20T07:45:37;1.90;72.10
12847;DHT22;6492;48.128;8.320;2023-12-20T07:49:39;1.90;72.10
12847;DHT22;6492;48.128;8.320;2023-12-20T07:53:40;2.00;72.20
12847;DHT22;6492;48.128;8.320;2023-12-20T07:57:42;2.00;72.20
12847;DHT22;6492;48.128;8.320;2023-12-20T08:01:45;2.00;72.30
12847;DHT22;6492;48.128;8.320;2023-12-20T08:05:48;2.00;72.30
12847;DHT22;6492;48.128;8.320;2023-12-20T08:09:50;2.00;72.30
12847;DHT22;6492;48.128;8.320;2023-12-20T08:13:52;2.00;72.30
12847;DHT22;6492;48.128;8.320;2023-12-20T08:17:55;2.00;72.40
12847;DHT22;6492;48.128;8.320;2023-12-20T08:22:01;2.00;72.40
12847;DHT22;6492;48.128;8.320;2023-12-20T08:26:04;2.00;72.40
12847;DHT22;6492;48.128;8.320;2023-12-20T08:30:08;2.10;73.40
12847;DHT22;6492;48.128;8.320;2023-12-20T08:34:12;2.10;72.60
12847;DHT22;6492;48.128;8.320;2023-12-20T08:38:15;2.10;72.70
12847;DHT22;6492;48.128;8.320;2023-12-20T08:42:17;2.10;72.70
12847;DHT22;6492;48.128;8.320;2023-12-20T08:46:18;2.10;72.80
12847;DHT22;6492;48.128;8.320;2023-12-20T08:50:24;2.20;72.80
12847;DHT22;6492;48.128;8.320;2023-12-20T08:54:27;2.20;72.80
12847;DHT22;6492;48.128;8.320;2023-12-20T08:58:32;2.20;72.70
12847;DHT22;6492;48.128;8.320;2023-12-20T09:02:34;2.20;72.80
12847;DHT22;6492;48.128;8.320;2023-12-20T09:06:37;2.20;72.80
12847;DHT22;6492;48.128;8.320;2023-12-20T09:10:40;2.20;72.80
12847;DHT22;6492;48.128;8.320;2023-12-20T09:14:42;2.20;72.60
12847;DHT22;6492;48.128;8.320;2023-12-20T09:18:53;2.10;72.30
12847;DHT22;6492;48.128;8.320;2023-12-20T09:23:04;2.00;71.80
12847;DHT22;6492;48.128;8.320;2023-12-20T09:27:06;1.90;71.30
12847;DHT22;6492;48.128;8.320;2023-12-20T09:31:08;1.80;70.40
12847;DHT22;6492;48.128;8.320;2023-12-20T09:35:09;1.80;70.20
12847;DHT22;6492;48.128;8.320;2023-12-20T09:39:13;1.70;69.90
12847;DHT22;6492;48.128;8.320;2023-12-20T09:43:15;1.70;69.50
12847;DHT22;6492;48.128;8.320;2023-12-20T09:47:22;1.70;69.50
12847;DHT22;6492;48.128;8.320;2023-12-20T09:51:27;1.70;69.20
12847;DHT22;6492;48.128;8.320;2023-12-20T09:55:32;1.60;68.70
12847;DHT22;6492;48.128;8.320;2023-12-20T09:59:34;1.70;68.80
12847;DHT22;6492;48.128;8.320;2023-12-20T10:03:36;1.80;69.00
12847;DHT22;6492;48.128;8.320;2023-12-20T10:07:40;1.80;68.60
12847;DHT22;6492;48.128;8.320;2023-12-20T10:11:43;1.70;67.50
12847;DHT22;6492;48.128;8.320;2023-12-20T10:15:47;1.60;67.20
12847;DHT22;6492;48.128;8.320;2023-12-20T10:19:48;1.60;67.00
12847;DHT22;6492;48.128;8.320;2023-12-20T10:23:50;1.60;67.40
12847;DHT22;6492;48.128;8.320;2023-12-20T10:32:24;1.80;67.50
12847;DHT22;6492;48.128;8.320;2023-12-20T10:36:26;1.60;62.80
12847;DHT22;6492;48.128;8.320;2023-12-20T10:40:29;1.50;63.10
12847;DHT22;6492;48.128;8.320;2023-12-20T10:44:31;1.50;63.70
12847;DHT22;6492;48.128;8.320;2023-12-20T10:48:34;1.60;64.10
12847;DHT22;6492;48.128;8.320;2023-12-20T10:52:40;1.60;62.70
12847;DHT22;6492;48.128;8.320;2023-12-20T10:56:42;1.50;60.90
12847;DHT22;6492;48.128;8.320;2023-12-20T11:00:47;1.50;60.00
12847;DHT22;6492;48.128;8.320;2023-12-20T11:04:56;1.40;58.50
12847;DHT22;6492;48.128;8.320;2023-12-20T11:09:08;1.40;57.40
12847;DHT22;6492;48.128;8.320;2023-12-20T11:13:20;1.30;54.60
12847;DHT22;6492;48.128;8.320;2023-12-20T11:17:22;1.30;55.70
12847;DHT22;6492;48.128;8.320;2023-12-20T11:21:29;1.40;55.10
12847;DHT22;6492;48.128;8.320;2023-12-20T11:25:46;1.30;54.90
12847;DHT22;6492;48.128;8.320;2023-12-20T11:29:51;1.20;53.70
12847;DHT22;6492;48.128;8.320;2023-12-20T11:34:13;1.20;53.60
12847;DHT22;6492;48.128;8.320;2023-12-20T11:38:16;1.10;54.70
12847;DHT22;6492;48.128;8.320;2023-12-20T11:42:19;1.10;55.10
12847;DHT22;6492;48.128;8.320;2023-12-20T11:46:27;1.00;53.70
12847;DHT22;6492;48.128;8.320;2023-12-20T11:50:30;1.00;54.20
12847;DHT22;6492;48.128;8.320;2023-12-20T11:54:33;1.20;54.20
12847;DHT22;6492;48.128;8.320;2023-12-20T11:58:35;1.20;51.20
12847;DHT22;6492;48.128;8.320;2023-12-20T12:02:37;1.20;48.30
12847;DHT22;6492;48.128;8.320;2023-12-20T12:06:39;1.10;46.80
12847;DHT22;6492;48.128;8.320;2023-12-20T12:10:43;1.10;45.20
12847;DHT22;6492;48.128;8.320;2023-12-20T12:14:48;0.90;44.80
12847;DHT22;6492;48.128;8.320;2023-12-20T12:18:56;0.90;44.70
12847;DHT22;6492;48.128;8.320;2023-12-20T12:22:58;0.90;43.30
12847;DHT22;6492;48.128;8.320;2023-12-20T12:27:02;0.90;43.40
12847;DHT22;6492;48.128;8.320;2023-12-20T12:31:04;0.90;44.10
12847;DHT22;6492;48.128;8.320;2023-12-20T12:35:08;0.90;45.00
12847;DHT22;6492;48.128;8.320;2023-12-20T12:39:12;0.90;44.90
12847;DHT22;6492;48.128;8.320;2023-12-20T12:43:17;0.90;46.40
12847;DHT22;6492;48.128;8.320;2023-12-20T12:47:18;1.10;45.40
12847;DHT22;6492;48.128;8.320;2023-12-20T12:51:20;1.30;43.40
12847;DHT22;6492;48.128;8.320;2023-12-20T12:55:22;1.20;42.80
12847;DHT22;6492;48.128;8.320;2023-12-20T12:59:25;1.20;42.60
12847;DHT22;6492;48.128;8.320;2023-12-20T13:03:32;1.10;41.20
12847;DHT22;6492;48.128;8.320;2023-12-20T13:07:34;1.10;40.40
12847;DHT22;6492;48.128;8.320;2023-12-20T13:11:38;1.00;41.50
12847;DHT22;6492;48.128;8.320;2023-12-20T13:15:41;1.00;42.80
12847;DHT22;6492;48.128;8.320;2023-12-20T13:19:48;0.90;42.50
12847;DHT22;6492;48.128;8.320;2023-12-20T13:23:51;0.90;41.50
12847;DHT22;6492;48.128;8.320;2023-12-20T13:27:56;0.90;41.60
12847;DHT22;6492;48.128;8.320;2023-12-20T13:32:00;0.90;41.20
12847;DHT22;6492;48.128;8.320;2023-12-20T13:36:05;0.90;41.70
12847;DHT22;6492;48.128;8.320;2023-12-20T13:40:08;1.00;42.90
12847;DHT22;6492;48.128;8.320;2023-12-20T13:44:10;1.00;43.10
12847;DHT22;6492;48.128;8.320;2023-12-20T13:48:14;1.00;42.80
12847;DHT22;6492;48.128;8.320;2023-12-20T13:52:16;1.00;42.90
12847;DHT22;6492;48.128;8.320;2023-12-20T13:56:19;1.00;43.70
12847;DHT22;6492;48.128;8.320;2023-12-20T14:00:21;1.10;43.10
12847;DHT22;6492;48.128;8.320;2023-12-20T14:04:25;1.00;43.60
12847;DHT22;6492;48.128;8.320;2023-12-20T14:08:26;1.00;44.30
12847;DHT22;6492;48.128;8.320;2023-12-20T14:12:29;1.10;45.30
12847;DHT22;6492;48.128;8.320;2023-12-20T14:16:32;1.20;43.10
12847;DHT22;6492;48.128;8.320;2023-12-20T14:20:35;1.40;41.40
12847;DHT22;6492;48.128;8.320;2023-12-20T14:24:42;1.50;39.90
12847;DHT22;6492;48.128;8.320;2023-12-20T14:28:43;1.50;39.20
12847;DHT22;6492;48.128;8.320;2023-12-20T14:32:48;1.60;40.30
12847;DHT22;6492;48.128;8.320;2023-12-20T14:36:51;1.60;36.50
12847;DHT22;6492;48.128;8.320;2023-12-20T14:40:54;1.60;36.40
12847;DHT22;6492;48.128;8.320;2023-12-20T14:44:55;1.50;36.60
12847;DHT22;6492;48.128;8.320;2023-12-20T14:48:57;1.40;37.60
12847;DHT22;6492;48.128;8.320;2023-12-20T14:53:00;1.30;38.60
12847;DHT22;6492;48.128;8.320;2023-12-20T14:57:02;1.30;38.70
12847;DHT22;6492;48.128;8.320;2023-12-20T15:01:04;1.10;39.20
12847;DHT22;6492;48.128;8.320;2023-12-20T15:05:09;1.10;39.30
12847;DHT22;6492;48.128;8.320;2023-12-20T15:09:12;1.00;40.30
12847;DHT22;6492;48.128;8.320;2023-12-20T15:13:13;0.90;40.70
12847;DHT22;6492;48.128;8.320;2023-12-20T15:17:15;0.80;40.40
12847;DHT22;6492;48.128;8.320;2023-12-20T15:21:17;0.80;40.90
12847;DHT22;6492;48.128;8.320;2023-12-20T15:25:20;0.80;40.70
12847;DHT22;6492;48.128;8.320;2023-12-20T15:29:22;0.70;41.40
12847;DHT22;6492;48.128;8.320;2023-12-20T15:33:24;0.70;42.00
12847;DHT22;6492;48.128;8.320;2023-12-20T15:37:26;0.70;42.10
12847;DHT22;6492;48.128;8.320;2023-12-20T15:41:29;0.70;42.20
12847;DHT22;6492;48.128;8.320;2023-12-20T15:45:31;0.70;42.20
12847;DHT22;6492;48.128;8.320;2023-12-20T15:49:33;0.70;42.30
12847;DHT22;6492;48.128;8.320;2023-12-20T15:53:35;0.60;42.60
12847;DHT22;6492;48.128;8.320;2023-12-20T15:57:39;0.50;43.70
12847;DHT22;6492;48.128;8.320;2023-12-20T16:01:40;0.50;45.00
12847;DHT22;6492;48.128;8.320;2023-12-20T16:05:45;0.50;46.30
12847;DHT22;6492;48.128;8.320;2023-12-20T16:09:48;0.50;47.70
12847;DHT22;6492;48.128;8.320;2023-12-20T16:13:54;0.50;48.40
12847;DHT22;6492;48.128;8.320;2023-12-20T16:17:56;0.50;49.30
12847;DHT22;6492;48.128;8.320;2023-12-20T16:21:58;0.50;49.70
12847;DHT22;6492;48.128;8.320;2023-12-20T16:26:00;0.40;50.00
12847;DHT22;6492;48.128;8.320;2023-12-20T16:30:03;0.50;49.10
12847;DHT22;6492;48.128;8.320;2023-12-20T16:34:05;0.50;48.40
12847;DHT22;6492;48.128;8.320;2023-12-20T16:38:07;0.50;47.00
12847;DHT22;6492;48.128;8.320;2023-12-20T16:42:09;0.60;45.90
12847;DHT22;6492;48.128;8.320;2023-12-20T16:46:18;0.60;45.40
12847;DHT22;6492;48.128;8.320;2023-12-20T16:50:20;0.60;45.00
12847;DHT22;6492;48.128;8.320;2023-12-20T16:54:26;0.60;45.50
12847;DHT22;6492;48.128;8.320;2023-12-20T16:58:29;0.60;45.80
12847;DHT22;6492;48.128;8.320;2023-12-20T17:02:33;0.60;45.60
12847;DHT22;6492;48.128;8.320;2023-12-20T17:06:35;0.60;45.40
12847;DHT22;6492;48.128;8.320;2023-12-20T17:10:37;0.50;45.90
12847;DHT22;6492;48.128;8.320;2023-12-20T17:14:39;0.60;45.30
12847;DHT22;6492;48.128;8.320;2023-12-20T17:18:42;0.60;45.10
12847;DHT22;6492;48.128;8.320;2023-12-20T17:22:49;0.60;45.60
12847;DHT22;6492;48.128;8.320;2023-12-20T17:26:50;0.60;45.50
12847;DHT22;6492;48.128;8.320;2023-12-20T17:30:53;0.60;45.50
12847;DHT22;6492;48.128;8.320;2023-12-20T17:34:56;0.60;45.00
12847;DHT22;6492;48.128;8.320;2023-12-20T17:38:58;0.60;45.30
12847;DHT22;6492;48.128;8.320;2023-12-20T17:43:00;0.60;45.60
12847;DHT22;6492;48.128;8.320;2023-12-20T17:47:01;0.60;45.80
12847;DHT22;6492;48.128;8.320;2023-12-20T17:51:08;0.60;46.50
12847;DHT22;6492;48.128;8.320;2023-12-20T17:55:10;0.70;45.70
12847;DHT22;6492;48.128;8.320;2023-12-20T17:59:19;0.60;46.10
12847;DHT22;6492;48.128;8.320;2023-12-20T18:03:21;0.60;45.50
12847;DHT22;6492;48.128;8.320;2023-12-20T18:07:24;0.70;45.70
12847;DHT22;6492;48.128;8.320;2023-12-20T18:11:30;0.60;46.20
12847;DHT22;6492;48.128;8.320;2023-12-20T18:15:32;0.60;46.00
12847;DHT22;6492;48.128;8.320;2023-12-20T18:19:35;0.60;45.70
12847;DHT22;6492;48.128;8.320;2023-12-20T18:23:49;0.70;46.00
12847;DHT22;6492;48.128;8.320;2023-12-20T18:27:52;0.70;46.30
12847;DHT22;6492;48.128;8.320;2023-12-20T18:31:53;0.60;46.60
12847;DHT22;6492;48.128;8.320;2023-12-20T18:35:55;0.60;46.90
12847;DHT22;6492;48.128;8.320;2023-12-20T18:39:59;0.60;47.30
12847;DHT22;6492;48.128;8.320;2023-12-20T18:44:01;0.70;47.10
12847;DHT22;6492;48.128;8.320;2023-12-20T18:48:20;0.60;47.00
12847;DHT22;6492;48.128;8.320;2023-12-20T18:52:23;0.70;47.10
12847;DHT22;6492;48.128;8.320;2023-12-20T18:56:26;1.20;47.20
12847;DHT22;6492;48.128;8.320;2023-12-20T19:00:28;0.70;46.50
12847;DHT22;6492;48.128;8.320;2023-12-20T19:04:30;0.70;46.70
12847;DHT22;6492;48.128;8.320;2023-12-20T19:08:32;0.70;46.90
12847;DHT22;6492;48.128;8.320;2023-12-20T19:12:45;0.70;46.90
12847;DHT22;6492;48.128;8.320;2023-12-20T19:16:47;0.70;47.60
12847;DHT22;6492;48.128;8.320;2023-12-20T19:20:49;0.70;48.20
12847;DHT22;6492;48.128;8.320;2023-12-20T19:24:50;0.60;48.50
12847;DHT22;6492;48.128;8.320;2023-12-20T19:28:53;0.60;49.40
12847;DHT22;6492;48.128;8.320;2023-12-20T19:32:55;0.60;50.20
12847;DHT22;6492;48.128;8.320;2023-12-20T19:36:57;0.50;51.00
12847;DHT22;6492;48.128;8.320;2023-12-20T19:40:58;0.50;51.40
12847;DHT22;6492;48.128;8.320;2023-12-20T19:45:02;0.50;51.60
12847;DHT22;6492;48.128;8.320;2023-12-20T19:49:14;0.50;51.80
12847;DHT22;6492;48.128;8.320;2023-12-20T19:53:16;0.60;52.20
12847;DHT22;6492;48.128;8.320;2023-12-20T19:57:18;0.50;52.40
12847;DHT22;6492;48.128;8.320;2023-12-20T20:01:25;0.60;52.40
12847;DHT22;6492;48.128;8.320;2023-12-20T20:05:27;0.60;52.70
12847;DHT22;6492;48.128;8.320;2023-12-20T20:09:29;0.60;53.20
12847;DHT22;6492;48.128;8.320;2023-12-20T20:13:30;0.50;53.10
12847;DHT22;6492;48.128;8.320;2023-12-20T20:17:34;0.50;53.80
12847;DHT22;6492;48.128;8.320;2023-12-20T20:21:47;0.60;53.60
12847;DHT22;6492;48.128;8.320;2023-12-20T20:25:49;0.60;53.40
12847;DHT22;6492;48.128;8.320;2023-12-20T20:29:51;0.60;53.90
12847;DHT22;6492;48.128;8.320;2023-12-20T20:33:54;0.60;54.20
12847;DHT22;6492;48.128;8.320;2023-12-20T20:37:57;0.60;54.20
12847;DHT22;6492;48.128;8.320;2023-12-20T20:41:59;0.60;55.00
12847;DHT22;6492;48.128;8.320;2023-12-20T20:46:00;0.60;55.40
12847;DHT22;6492;48.128;8.320;2023-12-20T20:50:06;0.60;55.40
12847;DHT22;6492;48.128;8.320;2023-12-20T20:54:08;0.50;55.50
12847;DHT22;6492;48.128;8.320;2023-12-20T20:58:11;0.50;55.80
12847;DHT22;6492;48.128;8.320;2023-12-20T21:02:19;0.60;56.20
12847;DHT22;6492;48.128;8.320;2023-12-20T21:06:22;0.60;56.70
12847;DHT22;6492;48.128;8.320;2023-12-20T21:10:24;0.60;56.50
12847;DHT22;6492;48.128;8.320;2023-12-20T21:14:26;0.60;56.60
12847;DHT22;6492;48.128;8.320;2023-12-20T21:18:28;0.60;56.10
12847;DHT22;6492;48.128;8.320;2023-12-20T21:22:31;0.60;56.30
12847;DHT22;6492;48.128;8.320;2023-12-20T21:26:33;0.60;56.10
12847;DHT22;6492;48.128;8.320;2023-12-20T21:30:36;0.70;55.80
12847;DHT22;6492;48.128;8.320;2023-12-20T21:34:39;0.70;55.20
12847;DHT22;6492;48.128;8.320;2023-12-20T21:38:42;0.80;54.90
12847;DHT22;6492;48.128;8.320;2023-12-20T21:42:45;0.70;54.90
12847;DHT22;6492;48.128;8.320;2023-12-20T21:46:46;0.70;55.40
12847;DHT22;6492;48.128;8.320;2023-12-20T21:50:48;0.70;55.20
12847;DHT22;6492;48.128;8.320;2023-12-20T21:54:51;0.70;56.00
12847;DHT22;6492;48.128;8.320;2023-12-20T21:58:53;0.70;56.30
12847;DHT22;6492;48.128;8.320;2023-12-20T22:02:55;0.80;55.60
12847;DHT22;6492;48.128;8.320;2023-12-20T22:06:58;0.70;56.00
12847;DHT22;6492;48.128;8.320;2023-12-20T22:11:01;0.80;56.10
12847;DHT22;6492;48.128;8.320;2023-12-20T22:15:04;0.80;56.10
12847;DHT22;6492;48.128;8.320;2023-12-20T22:19:06;0.80;56.30
12847;DHT22;6492;48.128;8.320;2023-12-20T22:23:08;0.70;56.80
12847;DHT22;6492;48.128;8.320;2023-12-20T22:27:11;0.70;57.30
12847;DHT22;6492;48.128;8.320;2023-12-20T22:31:12;0.70;57.30
12847;DHT22;6492;48.128;8.320;2023-12-20T22:35:15;0.70;57.10
12847;DHT22;6492;48.128;8.320;2023-12-20T22:39:16;0.70;57.40
12847;DHT22;6492;48.128;8.320;2023-12-20T22:43:19;0.70;57.80
12847;DHT22;6492;48.128;8.320;2023-12-20T22:47:21;0.70;58.30
12847;DHT22;6492;48.128;8.320;2023-12-20T22:51:24;0.70;58.80
12847;DHT22;6492;48.128;8.320;2023-12-20T22:55:26;0.70;59.30
12847;DHT22;6492;48.128;8.320;2023-12-20T22:59:29;0.70;59.20
12847;DHT22;6492;48.128;8.320;2023-12-20T23:03:31;0.70;58.90
12847;DHT22;6492;48.128;8.320;2023-12-20T23:07:33;0.60;59.10
12847;DHT22;6492;48.128;8.320;2023-12-20T23:11:34;0.60;59.80
12847;DHT22;6492;48.128;8.320;2023-12-20T23:15:37;0.70;60.60
12847;DHT22;6492;48.128;8.320;2023-12-20T23:19:39;0.70;60.20
12847;DHT22;6492;48.128;8.320;2023-12-20T23:23:41;0.70;60.50
12847;DHT22;6492;48.128;8.320;2023-12-20T23:27:44;0.70;59.90
12847;DHT22;6492;48.128;8.320;2023-12-20T23:31:48;0.80;60.00
12847;DHT22;6492;48.128;8.320;2023-12-20T23:35:50;0.80;60.10
12847;DHT22;6492;48.128;8.320;2023-12-20T23:39:52;0.80;60.70
12847;DHT22;6492;48.128;8.320;2023-12-20T23:43:53;0.80;60.90
12847;DHT22;6492;48.128;8.320;2023-12-20T23:47:57;0.80;61.60
12847;DHT22;6492;48.128;8.320;2023-12-20T23:51:58;0.80;62.90
12847;DHT22;6492;48.128;8.320;2023-12-20T23:56:02;0.90;63.20
